createdAt,value
2022-09-04T00:00:00.096Z,0.5
2022-09-04T00:01:09.834Z,0.5
2022-09-04T00:02:18.487Z,0.5
2022-09-04T00:03:26.214Z,0.5
2022-09-04T00:04:35.972Z,0.7
2022-09-04T00:05:43.553Z,0.4
2022-09-04T00:06:52.246Z,0.5
2022-09-04T00:08:01.910Z,0.5
2022-09-04T00:09:10.589Z,0.5
2022-09-04T00:10:20.322Z,0.4
2022-09-04T00:11:29.008Z,0.4
2022-09-04T00:12:36.675Z,0.7
2022-09-04T00:13:46.375Z,0.5
2022-09-04T00:14:55.087Z,0.4
2022-09-04T00:16:04.775Z,0.6
2022-09-04T00:17:13.422Z,0.5
2022-09-04T00:18:22.149Z,0.5
2022-09-04T00:19:31.789Z,0.6
2022-09-04T00:20:40.466Z,0.5
2022-09-04T00:21:50.122Z,0.5
2022-09-04T00:22:59.823Z,0.4
2022-09-04T00:24:07.511Z,0.4
2022-09-04T00:25:17.221Z,0.6
2022-09-04T00:26:25.980Z,0.7
2022-09-04T00:27:36.004Z,0.5
2022-09-04T00:28:45.336Z,0.6
2022-09-04T00:29:54.009Z,0.5
2022-09-04T00:31:03.745Z,0.4
2022-09-04T00:32:12.393Z,0.5
2022-09-04T00:33:21.039Z,0.5
2022-09-04T00:34:30.706Z,0.5
2022-09-04T00:35:38.381Z,0.4
2022-09-04T00:36:50.331Z,0.5
2022-09-04T00:37:59.782Z,0.5
2022-09-04T00:39:08.436Z,0.5
2022-09-04T00:40:19.113Z,0.4
2022-09-04T00:41:28.791Z,0.5
2022-09-04T00:42:36.481Z,0.6
2022-09-04T00:43:46.282Z,0.6
2022-09-04T00:44:54.964Z,0.5
2022-09-04T00:46:03.671Z,0.6
2022-09-04T00:47:13.310Z,0.5
2022-09-04T00:48:20.960Z,0.6
2022-09-04T00:49:30.801Z,0.6
2022-09-04T00:50:39.492Z,0.5
2022-09-04T00:51:47.169Z,0.5
2022-09-04T00:52:58.428Z,0.6
2022-09-04T00:54:06.509Z,0.5
2022-09-04T00:55:15.236Z,0.7
2022-09-04T00:56:24.906Z,0.5
2022-09-04T00:57:32.607Z,0.5
2022-09-04T00:58:42.275Z,0.6
2022-09-04T00:59:51.961Z,0.7
2022-09-04T01:01:00.858Z,0.6
2022-09-04T01:02:10.383Z,0.6
2022-09-04T01:03:19.067Z,0.6
2022-09-04T01:04:28.798Z,0.6
2022-09-04T01:05:38.458Z,0.7
2022-09-04T01:06:46.157Z,0.6
2022-09-04T01:07:55.867Z,0.6
2022-09-04T01:09:04.581Z,0.7
2022-09-04T01:10:13.320Z,0.4
2022-09-04T01:11:23.041Z,0.5
2022-09-04T01:12:30.737Z,0.5
2022-09-04T01:13:39.397Z,0.4
2022-09-04T01:14:50.946Z,0.5
2022-09-04T01:15:59.817Z,0.6
2022-09-04T01:17:09.497Z,0.6
2022-09-04T01:18:19.186Z,0.6
2022-09-04T01:19:26.898Z,0.5
2022-09-04T01:20:36.614Z,0.8
2022-09-04T01:21:45.278Z,0.5
2022-09-04T01:22:53.956Z,0.4
2022-09-04T01:24:03.654Z,0.5
2022-09-04T01:25:11.306Z,0.3
2022-09-04T01:26:21.024Z,0.4
2022-09-04T01:27:29.685Z,0.5
2022-09-04T01:28:37.332Z,0.5
2022-09-04T01:29:47.024Z,0.6
2022-09-04T01:30:55.708Z,0.4
2022-09-04T01:32:04.447Z,0.5
2022-09-04T01:33:14.244Z,0.4
2022-09-04T01:34:22.878Z,0.3
2022-09-04T01:35:32.663Z,0.3
2022-09-04T01:36:41.320Z,0.3
2022-09-04T01:37:50.034Z,0.4
2022-09-04T01:38:59.695Z,0.4
2022-09-04T01:40:08.376Z,0.3
2022-09-04T01:41:16.089Z,0.4
2022-09-04T01:42:25.793Z,0.4
2022-09-04T01:43:33.472Z,0.4
2022-09-04T01:44:43.131Z,0.3
2022-09-04T01:45:51.845Z,0.5
2022-09-04T01:47:01.731Z,0.5
2022-09-04T01:48:11.408Z,0.4
2022-09-04T01:49:19.079Z,0.4
2022-09-04T01:50:27.779Z,0.3
2022-09-04T01:51:37.484Z,0.3
2022-09-04T01:52:45.220Z,0.3
2022-09-04T01:53:54.965Z,0.5
2022-09-04T01:55:03.650Z,0.4
2022-09-04T01:56:12.313Z,0.3
2022-09-04T01:57:22.028Z,0.5
2022-09-04T01:58:30.729Z,0.3
2022-09-04T01:59:39.391Z,0.3
2022-09-04T02:00:49.111Z,0.4
2022-09-04T02:01:57.769Z,0.5
2022-09-04T02:03:07.438Z,0.3
2022-09-04T02:04:16.127Z,0.4
2022-09-04T02:05:23.780Z,0.3
2022-09-04T02:06:33.459Z,0.3
2022-09-04T02:07:41.147Z,0.5
2022-09-04T02:08:49.824Z,0.4
2022-09-04T02:09:59.560Z,0.4
2022-09-04T02:11:08.310Z,0.4
2022-09-04T02:12:18.975Z,0.4
2022-09-04T02:13:28.638Z,0.3
2022-09-04T02:14:38.324Z,0.5
2022-09-04T02:15:47.026Z,0.4
2022-09-04T02:16:54.690Z,0.5
2022-09-04T02:18:04.361Z,0.3
2022-09-04T02:19:12.029Z,0.4
2022-09-04T02:20:20.693Z,0.4
2022-09-04T02:21:30.623Z,0.4
2022-09-04T02:22:38.310Z,0.6
2022-09-04T02:23:48.027Z,0.5
2022-09-04T02:24:56.714Z,0.2
2022-09-04T02:26:04.392Z,0.4
2022-09-04T02:27:14.150Z,0.4
2022-09-04T02:28:22.842Z,0.4
2022-09-04T02:29:33.158Z,0.6
2022-09-04T02:30:42.141Z,0.5
2022-09-04T02:31:50.844Z,0.4
2022-09-04T02:33:00.485Z,0.3
2022-09-04T02:34:09.175Z,0.4
2022-09-04T02:35:16.867Z,0.3
2022-09-04T02:36:27.564Z,0.4
2022-09-04T02:37:37.267Z,0.5
2022-09-04T02:38:46.962Z,0.5
2022-09-04T02:39:56.679Z,0.3
2022-09-04T02:41:05.283Z,0.5
2022-09-04T02:42:13.959Z,0.3
2022-09-04T02:43:22.625Z,0.5
2022-09-04T02:44:32.300Z,0.5
2022-09-04T02:45:42.000Z,0.5
2022-09-04T02:46:49.706Z,0.4
2022-09-04T02:47:58.323Z,0.4
2022-09-04T02:49:08.011Z,0.6
2022-09-04T02:50:16.707Z,0.4
2022-09-04T02:51:26.381Z,0.4
2022-09-04T02:52:36.084Z,0.4
2022-09-04T02:53:44.825Z,0.4
2022-09-04T02:54:54.520Z,0.3
2022-09-04T02:56:02.222Z,0.4
2022-09-04T02:57:11.908Z,0.4
2022-09-04T02:58:21.598Z,0.4
2022-09-04T02:59:29.285Z,0.4
2022-09-04T03:00:38.070Z,0.4
2022-09-04T03:01:49.675Z,0.4
2022-09-04T03:02:56.363Z,0.3
2022-09-04T03:04:06.052Z,0.5
2022-09-04T03:05:13.720Z,0.5
2022-09-04T03:06:21.374Z,0.5
2022-09-04T03:07:31.061Z,0.4
2022-09-04T03:08:39.711Z,0.4
2022-09-04T03:09:49.382Z,0.4
2022-09-04T03:10:58.077Z,0.4
2022-09-04T03:12:05.777Z,0.3
2022-09-04T03:13:15.546Z,0.3
2022-09-04T03:14:23.216Z,0.4
2022-09-04T03:15:31.853Z,0.4
2022-09-04T03:16:41.521Z,0.7
2022-09-04T03:17:51.212Z,0.9
2022-09-04T03:19:01.932Z,0.3
2022-09-04T03:20:10.585Z,0.4
2022-09-04T03:21:20.257Z,0.3
2022-09-04T03:22:29.963Z,0.2
2022-09-04T03:23:37.582Z,0.4
2022-09-04T03:24:46.283Z,0.4
2022-09-04T03:25:55.947Z,0.2
2022-09-04T03:27:02.629Z,0.5
2022-09-04T03:28:12.294Z,0.4
2022-09-04T03:29:20.933Z,0.4
2022-09-04T03:30:29.688Z,0.3
2022-09-04T03:31:39.442Z,0.4
2022-09-04T03:32:48.026Z,0.3
2022-09-04T03:33:56.720Z,0.3
2022-09-04T03:35:06.450Z,0.3
2022-09-04T03:36:15.159Z,0.3
2022-09-04T03:37:24.859Z,0.4
2022-09-04T03:38:33.504Z,0.4
2022-09-04T03:39:42.226Z,0.4
2022-09-04T03:40:51.854Z,0.4
2022-09-04T03:42:01.580Z,0.5
2022-09-04T03:43:11.294Z,0.5
2022-09-04T03:44:20.976Z,0.6
2022-09-04T03:45:29.712Z,0.4
2022-09-04T03:46:39.436Z,0.5
2022-09-04T03:47:49.121Z,0.5
2022-09-04T03:48:56.790Z,0.5
2022-09-04T03:50:06.475Z,0.5
2022-09-04T03:51:16.252Z,0.4
2022-09-04T03:52:24.951Z,0.5
2022-09-04T03:53:34.670Z,0.4
2022-09-04T03:54:44.389Z,0.5
2022-09-04T03:55:54.063Z,0.5
2022-09-04T03:57:02.730Z,0.5
2022-09-04T03:58:12.420Z,0.5
2022-09-04T03:59:22.141Z,0.5
2022-09-04T04:00:29.901Z,0.3
2022-09-04T04:01:38.541Z,0.5
2022-09-04T04:02:48.313Z,0.5
2022-09-04T04:03:57.920Z,0.5
2022-09-04T04:05:07.592Z,0.4
2022-09-04T04:06:16.265Z,0.4
2022-09-04T04:07:24.957Z,0.3
2022-09-04T04:08:34.686Z,0.4
2022-09-04T04:09:42.347Z,0.4
2022-09-04T04:10:51.056Z,0.3
2022-09-04T04:11:59.805Z,0.4
2022-09-04T04:13:09.497Z,0.4
2022-09-04T04:14:19.196Z,0.4
2022-09-04T04:15:27.857Z,0.5
2022-09-04T04:16:37.724Z,0.5
2022-09-04T04:17:46.330Z,0.4
2022-09-04T04:18:55.013Z,0.4
2022-09-04T04:20:02.731Z,0.4
2022-09-04T04:21:10.404Z,0.3
2022-09-04T04:22:19.133Z,0.6
2022-09-04T04:23:28.811Z,0.4
2022-09-04T04:24:37.481Z,0.4
2022-09-04T04:25:47.139Z,0.4
2022-09-04T04:26:57.785Z,0.4
2022-09-04T04:28:07.457Z,0.4
2022-09-04T04:29:17.151Z,0.5
2022-09-04T04:30:24.849Z,0.4
2022-09-04T04:31:33.641Z,0.4
2022-09-04T04:32:43.258Z,0.4
2022-09-04T04:33:52.976Z,0.5
2022-09-04T04:35:02.653Z,0.3
2022-09-04T04:36:11.330Z,0.5
2022-09-04T04:37:19.004Z,0.4
2022-09-04T04:38:29.686Z,0.5
2022-09-04T04:39:37.370Z,0.4
2022-09-04T04:40:46.050Z,0.4
2022-09-04T04:41:55.736Z,0.3
2022-09-04T04:43:03.404Z,0.5
2022-09-04T04:44:13.083Z,0.4
2022-09-04T04:45:21.781Z,0.4
2022-09-04T04:46:30.485Z,0.5
2022-09-04T04:47:40.159Z,0.4
2022-09-04T04:48:47.848Z,0.4
2022-09-04T04:49:57.525Z,0.3
2022-09-04T04:51:07.197Z,0.5
2022-09-04T04:52:14.858Z,0.4
2022-09-04T04:53:24.531Z,0.4
2022-09-04T04:54:34.276Z,0.5
2022-09-04T04:55:42.958Z,0.5
2022-09-04T04:56:52.628Z,0.5
2022-09-04T04:58:01.282Z,0.4
2022-09-04T04:59:09.953Z,0.3
2022-09-04T05:00:21.882Z,0.4
2022-09-04T05:01:29.317Z,0.4
2022-09-04T05:02:39.178Z,0.5
2022-09-04T05:03:47.706Z,0.5
2022-09-04T05:04:55.383Z,0.4
2022-09-04T05:06:05.065Z,0.4
2022-09-04T05:07:12.764Z,0.5
2022-09-04T05:08:21.519Z,0.5
2022-09-04T05:09:31.166Z,0.5
2022-09-04T05:10:39.851Z,0.5
2022-09-04T05:11:49.528Z,0.5
2022-09-04T05:12:58.190Z,0.6
2022-09-04T05:14:07.886Z,0.6
2022-09-04T05:15:16.564Z,0.4
2022-09-04T05:16:25.287Z,0.6
2022-09-04T05:17:33.929Z,0.4
2022-09-04T05:18:43.604Z,0.4
2022-09-04T05:19:53.295Z,0.3
2022-09-04T05:21:02.965Z,0.3
2022-09-04T05:22:11.639Z,0.3
2022-09-04T05:23:21.312Z,0.4
2022-09-04T05:24:31.978Z,0.9
2022-09-04T05:25:39.646Z,0.6
2022-09-04T05:26:49.317Z,0.7
2022-09-04T05:27:58.992Z,0.6
2022-09-04T05:29:06.629Z,0.5
2022-09-04T05:30:16.310Z,0.5
2022-09-04T05:31:26.063Z,0.5
2022-09-04T05:32:33.663Z,0.4
2022-09-04T05:33:43.327Z,0.6
2022-09-04T05:34:52.023Z,0.7
2022-09-04T05:36:00.672Z,0.6
2022-09-04T05:37:10.364Z,0.7
2022-09-04T05:38:19.071Z,0.6
2022-09-04T05:39:28.744Z,0.8
2022-09-04T05:40:37.413Z,0.8
2022-09-04T05:41:47.104Z,1
2022-09-04T05:42:56.945Z,0.9
2022-09-04T05:44:05.600Z,1.1
2022-09-04T05:45:15.287Z,0.9
2022-09-04T05:46:24.997Z,0.8
2022-09-04T05:47:33.648Z,0.8
2022-09-04T05:48:43.349Z,0.8
2022-09-04T05:49:53.024Z,0.8
2022-09-04T05:51:01.684Z,0.6
2022-09-04T05:52:11.349Z,0.6
2022-09-04T05:53:20.031Z,0.7
2022-09-04T05:54:29.714Z,0.5
2022-09-04T05:55:39.365Z,0.3
2022-09-04T05:56:48.031Z,0.4
2022-09-04T05:57:57.713Z,0.3
2022-09-04T05:59:06.370Z,0.4
2022-09-04T06:00:15.127Z,0.5
2022-09-04T06:01:24.885Z,0.5
2022-09-04T06:02:33.560Z,0.5
2022-09-04T06:03:43.271Z,0.4
2022-09-04T06:04:52.927Z,0.3
2022-09-04T06:06:00.653Z,0.4
2022-09-04T06:07:10.346Z,0.5
2022-09-04T06:08:19.033Z,0.3
2022-09-04T06:09:28.751Z,0.4
2022-09-04T06:10:38.410Z,0.4
2022-09-04T06:11:46.092Z,0.4
2022-09-04T06:12:55.781Z,0.3
2022-09-04T06:14:04.521Z,0.3
2022-09-04T06:15:14.193Z,0.5
2022-09-04T06:16:23.935Z,0.4
2022-09-04T06:17:32.627Z,0.4
2022-09-04T06:18:41.309Z,0.4
2022-09-04T06:19:51.012Z,0.3
2022-09-04T06:21:00.679Z,0.3
2022-09-04T06:22:10.353Z,0.3
2022-09-04T06:23:19.233Z,0.5
2022-09-04T06:24:27.956Z,0.4
2022-09-04T06:25:37.673Z,0.5
2022-09-04T06:26:45.386Z,0.4
2022-09-04T06:27:55.053Z,0.3
2022-09-04T06:29:05.768Z,0.6
2022-09-04T06:30:13.380Z,0.4
2022-09-04T06:31:23.116Z,0.5
2022-09-04T06:32:32.845Z,0.5
2022-09-04T06:33:41.526Z,0.4
2022-09-04T06:34:51.230Z,0.2
2022-09-04T06:35:59.924Z,0.3
2022-09-04T06:37:09.596Z,0.4
2022-09-04T06:38:19.285Z,0.4
2022-09-04T06:39:27.093Z,0.6
2022-09-04T06:40:36.729Z,0.3
2022-09-04T06:41:45.382Z,0.3
2022-09-04T06:42:54.151Z,0.6
2022-09-04T06:44:03.919Z,0.5
2022-09-04T06:45:13.566Z,0.4
2022-09-04T06:46:23.597Z,0.4
2022-09-04T06:47:32.161Z,0.4
2022-09-04T06:48:39.851Z,0.3
2022-09-04T06:49:49.536Z,0.4
2022-09-04T06:50:58.285Z,0.6
2022-09-04T06:52:07.965Z,0.4
2022-09-04T06:53:17.654Z,0.4
2022-09-04T06:54:25.318Z,0.4
2022-09-04T06:55:35.976Z,0.3
2022-09-04T06:56:44.642Z,1.1
2022-09-04T06:57:54.342Z,0.6
2022-09-04T06:59:04.021Z,0.2
2022-09-04T07:00:12.693Z,0.3
2022-09-04T07:01:21.490Z,0.4
2022-09-04T07:02:31.153Z,0.3
2022-09-04T07:03:38.865Z,0.4
2022-09-04T07:04:48.529Z,0.3
2022-09-04T07:05:58.214Z,0.4
2022-09-04T07:07:05.922Z,0.2
2022-09-04T07:08:15.668Z,0.2
2022-09-04T07:09:23.348Z,0.1
2022-09-04T07:10:32.161Z,0.2
2022-09-04T07:11:41.897Z,0.2
2022-09-04T07:12:50.559Z,0.3
2022-09-04T07:14:00.275Z,0.3
2022-09-04T07:15:09.010Z,0.1
2022-09-04T07:16:17.717Z,0.1
2022-09-04T07:17:27.370Z,0.1
2022-09-04T07:18:36.064Z,0.1
2022-09-04T07:19:44.742Z,0.1
2022-09-04T07:20:54.482Z,0.3
2022-09-04T07:22:03.160Z,0.2
2022-09-04T07:23:10.881Z,0.1
2022-09-04T07:24:20.595Z,0.2
2022-09-04T07:25:28.272Z,0.2
2022-09-04T07:26:37.087Z,0.1
2022-09-04T07:27:44.799Z,0.1
2022-09-04T07:28:53.532Z,0.1
2022-09-04T07:30:03.217Z,0.1
2022-09-04T07:31:10.946Z,0.1
2022-09-04T07:32:20.711Z,0.1
2022-09-04T07:33:28.397Z,0.1
2022-09-04T07:34:35.044Z,0.2
2022-09-04T07:35:44.711Z,0.1
2022-09-04T07:36:52.374Z,0.1
2022-09-04T07:38:01.087Z,0.1
2022-09-04T07:39:11.809Z,0.3
2022-09-04T07:40:19.461Z,0.1
2022-09-04T07:41:29.148Z,0.1
2022-09-04T07:42:37.818Z,0.2
2022-09-04T07:43:45.499Z,0.1
2022-09-04T07:44:55.161Z,0.1
2022-09-04T07:46:03.886Z,0.1
2022-09-04T07:47:12.531Z,0
2022-09-04T07:48:22.319Z,0
2022-09-04T07:49:31.080Z,0.2
2022-09-04T07:50:41.751Z,0.1
2022-09-04T07:51:50.432Z,0.2
2022-09-04T07:53:03.753Z,0.1
2022-09-04T07:54:11.828Z,0.3
2022-09-04T07:55:20.562Z,0.1
2022-09-04T07:56:29.246Z,0.1
2022-09-04T07:57:38.926Z,0.1
2022-09-04T07:58:47.630Z,0.1
2022-09-04T07:59:57.336Z,0.1
2022-09-04T08:01:06.074Z,0.1
2022-09-04T08:02:14.704Z,0.2
2022-09-04T08:03:24.369Z,0.1
2022-09-04T08:04:32.105Z,0.1
2022-09-04T08:05:40.741Z,0.3
2022-09-04T08:06:50.456Z,0.1
2022-09-04T08:07:58.132Z,0.1
2022-09-04T08:09:06.783Z,0.1
2022-09-04T08:10:15.437Z,0.1
2022-09-04T08:11:25.127Z,0.2
2022-09-04T08:12:33.825Z,0.2
2022-09-04T08:13:41.477Z,0.2
2022-09-04T08:14:51.147Z,0.1
2022-09-04T08:15:58.883Z,0.1
2022-09-04T08:17:07.508Z,0.1
2022-09-04T08:18:17.214Z,0.1
2022-09-04T08:19:24.927Z,0.4
2022-09-04T08:20:34.601Z,0.1
2022-09-04T08:21:43.259Z,0.1
2022-09-04T08:22:51.955Z,0.2
2022-09-04T08:24:00.654Z,0.1
2022-09-04T08:25:08.318Z,0.2
2022-09-04T08:26:17.019Z,0.1
2022-09-04T08:27:26.675Z,0.3
2022-09-04T08:28:35.356Z,0.1
2022-09-04T08:29:45.170Z,0.2
2022-09-04T08:30:54.088Z,0.3
2022-09-04T08:32:02.690Z,0.1
2022-09-04T08:33:12.356Z,0.1
2022-09-04T08:34:21.009Z,0.1
2022-09-04T08:35:29.734Z,0.3
2022-09-04T08:36:39.384Z,0.1
2022-09-04T08:37:47.055Z,0.2
2022-09-04T08:38:56.719Z,0.1
2022-09-04T08:40:05.398Z,0.1
2022-09-04T08:41:13.067Z,0.3
2022-09-04T08:42:22.738Z,0.2
2022-09-04T08:43:32.439Z,0.1
2022-09-04T08:44:41.095Z,0.2
2022-09-04T08:45:50.820Z,0.1
2022-09-04T08:46:59.480Z,0.2
2022-09-04T08:48:09.152Z,0.3
2022-09-04T08:49:18.832Z,0.2
2022-09-04T08:50:27.497Z,0.1
2022-09-04T08:51:37.165Z,0.1
2022-09-04T08:52:45.862Z,0.2
2022-09-04T08:53:54.538Z,0.1
2022-09-04T08:55:04.228Z,0.2
2022-09-04T08:56:11.917Z,0.1
2022-09-04T08:57:21.582Z,0.1
2022-09-04T08:58:30.271Z,0.2
2022-09-04T08:59:39.951Z,0.4
2022-09-04T09:00:49.625Z,0.2
2022-09-04T09:01:57.295Z,0.1
2022-09-04T09:03:05.965Z,0.2
2022-09-04T09:04:15.629Z,0.1
2022-09-04T09:05:25.304Z,0.1
2022-09-04T09:06:35.025Z,0.2
2022-09-04T09:07:43.674Z,0.1
2022-09-04T09:08:51.428Z,0.1
2022-09-04T09:10:00.149Z,0
2022-09-04T09:11:08.866Z,0.1
2022-09-04T09:12:17.531Z,0.1
2022-09-04T09:13:27.191Z,0.1
2022-09-04T09:14:36.891Z,0.1
2022-09-04T09:15:46.622Z,0.1
2022-09-04T09:16:55.368Z,0.1
2022-09-04T09:18:02.948Z,0.2
2022-09-04T09:19:12.613Z,0.1
2022-09-04T09:20:22.253Z,0.1
2022-09-04T09:21:30.948Z,0.2
2022-09-04T09:22:40.819Z,0.1
2022-09-04T09:23:50.488Z,0.3
2022-09-04T09:25:00.151Z,0.1
2022-09-04T09:26:08.810Z,0.2
2022-09-04T09:27:16.917Z,0.1
2022-09-04T09:28:29.481Z,0.1
2022-09-04T09:29:39.907Z,0.1
2022-09-04T09:30:48.593Z,0.1
2022-09-04T09:32:01.680Z,0.1
2022-09-04T09:33:08.073Z,0.2
2022-09-04T09:34:17.745Z,0.2
2022-09-04T09:35:26.419Z,0.1
2022-09-04T09:36:35.089Z,0.1
2022-09-04T09:37:44.779Z,0.2
2022-09-04T09:38:54.486Z,0.1
2022-09-04T09:40:03.179Z,0.1
2022-09-04T09:41:12.749Z,0.2
2022-09-04T09:42:21.429Z,0
2022-09-04T09:43:31.087Z,0.1
2022-09-04T09:44:40.756Z,0.2
2022-09-04T09:45:47.475Z,0.2
2022-09-04T09:46:57.192Z,0.1
2022-09-04T09:48:06.813Z,0.1
2022-09-04T09:49:15.536Z,0.1
2022-09-04T09:50:25.289Z,0.1
2022-09-04T09:51:32.950Z,0.2
2022-09-04T09:52:42.621Z,0.1
2022-09-04T09:53:52.251Z,0.1
2022-09-04T09:54:59.924Z,0.1
2022-09-04T09:56:09.610Z,0
2022-09-04T09:57:18.264Z,0.1
2022-09-04T09:58:26.920Z,0.1
2022-09-04T09:59:36.574Z,0.2
2022-09-04T10:00:44.316Z,0.1
2022-09-04T10:01:54.030Z,0.1
2022-09-04T10:03:01.696Z,0.1
2022-09-04T10:04:09.345Z,0.1
2022-09-04T10:05:19.020Z,0.1
2022-09-04T10:06:26.683Z,0.1
2022-09-04T10:07:36.471Z,0.1
2022-09-04T10:08:44.150Z,0.2
2022-09-04T10:09:52.824Z,0.2
2022-09-04T10:11:02.487Z,0.2
2022-09-04T10:12:10.140Z,0.2
2022-09-04T10:13:19.965Z,0.1
2022-09-04T10:14:29.571Z,0
2022-09-04T10:15:38.234Z,0.1
2022-09-04T10:16:47.976Z,0.2
2022-09-04T10:17:55.603Z,0.1
2022-09-04T10:19:05.285Z,0.1
2022-09-04T10:20:15.045Z,0.1
2022-09-04T10:21:24.727Z,0.1
2022-09-04T10:22:34.386Z,0.1
2022-09-04T10:23:45.057Z,0.1
2022-09-04T10:24:52.753Z,0.1
2022-09-04T10:26:02.466Z,0.1
2022-09-04T10:27:11.146Z,0.2
2022-09-04T10:28:19.856Z,0
2022-09-04T10:29:29.529Z,0.2
2022-09-04T10:30:37.314Z,0.2
2022-09-04T10:31:46.964Z,0.1
2022-09-04T10:32:55.628Z,0.1
2022-09-04T10:34:04.293Z,0.2
2022-09-04T10:35:13.954Z,0
2022-09-04T10:36:22.783Z,0.2
2022-09-04T10:37:32.435Z,0.1
2022-09-04T10:38:42.149Z,0.2
2022-09-04T10:39:49.864Z,0
2022-09-04T10:40:59.478Z,0.1
2022-09-04T10:42:08.167Z,0.1
2022-09-04T10:43:15.931Z,0
2022-09-04T10:44:25.574Z,0.1
2022-09-04T10:45:33.302Z,0.1
2022-09-04T10:46:42.923Z,0
2022-09-04T10:47:52.624Z,0.1
2022-09-04T10:49:00.277Z,0.2
2022-09-04T10:50:09.932Z,0.1
2022-09-04T10:51:19.624Z,0.1
2022-09-04T10:52:28.271Z,0.1
2022-09-04T10:53:37.946Z,0.2
2022-09-04T10:54:46.612Z,0.1
2022-09-04T10:55:56.268Z,0.2
2022-09-04T10:57:05.928Z,0.1
2022-09-04T10:58:13.607Z,0.1
2022-09-04T10:59:23.389Z,0.1
2022-09-04T11:00:31.059Z,0
2022-09-04T11:01:39.716Z,0.2
2022-09-04T11:02:49.372Z,0.1
2022-09-04T11:03:57.022Z,0.2
2022-09-04T11:05:05.701Z,0.1
2022-09-04T11:06:15.798Z,0.2
2022-09-04T11:07:25.764Z,0.1
2022-09-04T11:08:32.696Z,0.1
2022-09-04T11:09:41.368Z,0
2022-09-04T11:10:50.113Z,0.2
2022-09-04T11:11:59.831Z,0.1
2022-09-04T11:13:08.510Z,0
2022-09-04T11:14:17.188Z,0.2
2022-09-04T11:15:26.884Z,0.2
2022-09-04T11:16:34.633Z,0.1
2022-09-04T11:17:44.308Z,0.1
2022-09-04T11:18:52.996Z,0.1
2022-09-04T11:20:01.830Z,0.1
2022-09-04T11:21:11.476Z,0.1
2022-09-04T11:22:21.179Z,0.1
2022-09-04T11:23:29.877Z,0.1
2022-09-04T11:24:38.542Z,0.2
2022-09-04T11:25:46.204Z,0
2022-09-04T11:26:54.871Z,0.1
2022-09-04T11:28:03.611Z,0.1
2022-09-04T11:29:12.335Z,0.1
2022-09-04T11:30:22.042Z,0.1
2022-09-04T11:31:31.726Z,0.1
2022-09-04T11:32:41.332Z,0.2
2022-09-04T11:33:51.098Z,0.2
2022-09-04T11:34:59.792Z,0.1
2022-09-04T11:36:09.458Z,0.1
2022-09-04T11:37:18.110Z,0.2
2022-09-04T11:38:26.779Z,0.2
2022-09-04T11:39:36.591Z,0.1
2022-09-04T11:40:45.226Z,0.2
2022-09-04T11:41:53.926Z,0.2
2022-09-04T11:43:03.578Z,0.1
2022-09-04T11:44:11.258Z,0.2
2022-09-04T11:45:21.040Z,0.2
2022-09-04T11:46:29.617Z,0.2
2022-09-04T11:47:38.287Z,0.3
2022-09-04T11:48:47.978Z,0.2
2022-09-04T11:49:57.725Z,0.1
2022-09-04T11:51:06.547Z,0.1
2022-09-04T11:52:16.215Z,0.3
2022-09-04T11:53:22.933Z,0.1
2022-09-04T11:54:32.525Z,0.1
2022-09-04T11:55:42.199Z,0.1
2022-09-04T11:56:49.923Z,0.2
2022-09-04T11:57:59.582Z,0.2
2022-09-04T11:59:07.242Z,0.2
2022-09-04T12:00:15.921Z,0.1
2022-09-04T12:01:25.581Z,0.1
2022-09-04T12:02:33.346Z,0.1
2022-09-04T12:03:43.058Z,0.2
2022-09-04T12:04:50.706Z,0.1
2022-09-04T12:06:00.370Z,0.1
2022-09-04T12:07:09.085Z,0.2
2022-09-04T12:08:18.728Z,0.2
2022-09-04T12:09:27.414Z,0.2
2022-09-04T12:10:36.097Z,0.3
2022-09-04T12:11:44.753Z,0.1
2022-09-04T12:12:54.411Z,0.3
2022-09-04T12:14:03.164Z,0.3
2022-09-04T12:15:12.806Z,0.2
2022-09-04T12:16:21.540Z,0.2
2022-09-04T12:17:29.131Z,0.3
2022-09-04T12:18:38.792Z,0.1
2022-09-04T12:19:46.606Z,0.2
2022-09-04T12:20:55.280Z,0.1
2022-09-04T12:22:05.020Z,0.1
2022-09-04T12:23:13.671Z,0.1
2022-09-04T12:24:23.372Z,0.2
2022-09-04T12:25:32.059Z,0.1
2022-09-04T12:26:51.146Z,0.1
2022-09-04T12:27:52.414Z,0.2
2022-09-04T12:29:01.069Z,0.4
2022-09-04T12:30:09.751Z,0.1
2022-09-04T12:31:19.440Z,0.2
2022-09-04T12:32:26.049Z,0.2
2022-09-04T12:33:35.711Z,0.1
2022-09-04T12:34:44.408Z,0.1
2022-09-04T12:35:53.084Z,0.5
2022-09-04T12:37:02.781Z,0.2
2022-09-04T12:38:12.487Z,0.3
2022-09-04T12:39:21.208Z,0.3
2022-09-04T12:40:30.839Z,0.1
2022-09-04T12:41:39.517Z,0.1
2022-09-04T12:42:49.238Z,0.1
2022-09-04T12:43:57.930Z,0.1
2022-09-04T12:45:07.600Z,0
2022-09-04T12:46:17.340Z,0.1
2022-09-04T12:47:24.930Z,0.1
2022-09-04T12:48:32.611Z,0.1
2022-09-04T12:49:42.262Z,0.1
2022-09-04T12:50:50.922Z,0.1
2022-09-04T12:52:01.583Z,0
2022-09-04T12:53:10.243Z,0.1
2022-09-04T12:54:18.029Z,0.2
2022-09-04T12:55:31.437Z,0.2
2022-09-04T12:56:37.333Z,0.1
2022-09-04T12:57:46.024Z,0.1
2022-09-04T12:58:54.690Z,0.2
2022-09-04T13:00:03.394Z,0
2022-09-04T13:01:13.147Z,0.2
2022-09-04T13:02:21.787Z,0.1
2022-09-04T13:03:29.434Z,0.2
2022-09-04T13:04:39.115Z,0.1
2022-09-04T13:05:49.351Z,0.1
2022-09-04T13:06:58.453Z,0.1
2022-09-04T13:08:08.136Z,0.1
2022-09-04T13:09:16.827Z,0.1
2022-09-04T13:10:26.507Z,0.1
2022-09-04T13:11:36.228Z,0
2022-09-04T13:12:43.916Z,0.1
2022-09-04T13:13:52.570Z,0.1
2022-09-04T13:15:00.221Z,0.1
2022-09-04T13:16:08.916Z,0.1
2022-09-04T13:17:18.567Z,0.2
2022-09-04T13:18:27.217Z,0.3
2022-09-04T13:19:36.880Z,0.2
2022-09-04T13:20:45.571Z,0.1
2022-09-04T13:21:53.237Z,0.1
2022-09-04T13:23:02.937Z,0.1
2022-09-04T13:24:12.570Z,0.1
2022-09-04T13:25:22.377Z,0.1
2022-09-04T13:26:31.034Z,0.2
2022-09-04T13:27:38.734Z,0.1
2022-09-04T13:28:48.507Z,0.1
2022-09-04T13:29:59.869Z,0.2
2022-09-04T13:31:05.892Z,0.2
2022-09-04T13:32:15.493Z,0.3
2022-09-04T13:33:25.222Z,0.1
2022-09-04T13:34:34.861Z,0.1
2022-09-04T13:35:44.528Z,0.1
2022-09-04T13:36:52.175Z,0.1
2022-09-04T13:38:01.863Z,0.1
2022-09-04T13:39:10.502Z,0.1
2022-09-04T13:40:18.189Z,0.1
2022-09-04T13:41:30.342Z,0.1
2022-09-04T13:42:38.574Z,0.1
2022-09-04T13:43:47.272Z,0.2
2022-09-04T13:44:56.928Z,0.1
2022-09-04T13:46:04.651Z,0.2
2022-09-04T13:47:14.500Z,0.1
2022-09-04T13:48:23.024Z,0
2022-09-04T13:49:30.709Z,0.1
2022-09-04T13:50:40.359Z,0
2022-09-04T13:51:48.044Z,0.1
2022-09-04T13:52:57.699Z,0.1
2022-09-04T13:54:07.344Z,0.1
2022-09-04T13:55:15.050Z,0.1
2022-09-04T13:56:24.708Z,0.1
2022-09-04T13:57:33.515Z,0.2
2022-09-04T13:58:45.540Z,0
2022-09-04T13:59:52.923Z,0.1
2022-09-04T14:01:02.657Z,0.1
2022-09-04T14:02:12.326Z,0.1
2022-09-04T14:03:21.105Z,0.1
2022-09-04T14:04:29.705Z,0.2
2022-09-04T14:05:39.337Z,0.1
2022-09-04T14:06:48.029Z,0.2
2022-09-04T14:07:57.693Z,0.1
2022-09-04T14:09:07.323Z,0.1
2022-09-04T14:10:16.001Z,0.1
2022-09-04T14:11:25.665Z,0.1
2022-09-04T14:12:34.333Z,0.2
2022-09-04T14:13:42.982Z,0.1
2022-09-04T14:14:52.653Z,0.2
2022-09-04T14:16:01.351Z,0.1
2022-09-04T14:17:10.999Z,0
2022-09-04T14:18:20.666Z,0.1
2022-09-04T14:19:29.316Z,0.1
2022-09-04T14:20:39.076Z,0.1
2022-09-04T14:21:48.806Z,0.1
2022-09-04T14:22:57.438Z,0.1
2022-09-04T14:24:07.131Z,0.1
2022-09-04T14:25:15.783Z,0.1
2022-09-04T14:26:25.428Z,0
2022-09-04T14:27:34.101Z,0.1
2022-09-04T14:28:42.744Z,0.1
2022-09-04T14:29:52.469Z,0.1
2022-09-04T14:31:01.112Z,0.1
2022-09-04T14:32:09.829Z,0.1
2022-09-04T14:33:21.774Z,0.1
2022-09-04T14:34:28.212Z,0.1
2022-09-04T14:35:37.907Z,0.1
2022-09-04T14:36:46.583Z,0.1
2022-09-04T14:37:54.260Z,0.1
2022-09-04T14:39:03.929Z,0.1
2022-09-04T14:40:11.580Z,0.1
2022-09-04T14:41:21.300Z,0.2
2022-09-04T14:42:30.985Z,0.2
2022-09-04T14:43:39.665Z,0.1
2022-09-04T14:44:49.335Z,0.2
2022-09-04T14:45:59.005Z,0.1
2022-09-04T14:47:07.776Z,0.2
2022-09-04T14:48:17.434Z,0
2022-09-04T14:49:26.187Z,0.1
2022-09-04T14:50:34.860Z,0.1
2022-09-04T14:51:44.520Z,0.1
2022-09-04T14:52:52.225Z,0
2022-09-04T14:54:01.892Z,0.1
2022-09-04T14:55:10.589Z,0
2022-09-04T14:56:18.276Z,0.1
2022-09-04T14:57:27.966Z,0.1
2022-09-04T14:58:36.720Z,0.1
2022-09-04T14:59:46.380Z,0.1
2022-09-04T15:00:56.182Z,0.1
2022-09-04T15:02:03.854Z,0.1
2022-09-04T15:03:14.527Z,0
2022-09-04T15:04:24.143Z,0.1
2022-09-04T15:05:31.824Z,0.2
2022-09-04T15:06:55.014Z,0.2
2022-09-04T15:07:51.160Z,0.2
2022-09-04T15:08:59.885Z,0.1
2022-09-04T15:10:09.483Z,0.1
2022-09-04T15:11:18.162Z,0
2022-09-04T15:12:27.824Z,0
2022-09-04T15:13:36.499Z,0.1
2022-09-04T15:14:45.158Z,0.1
2022-09-04T15:15:54.922Z,0.1
2022-09-04T15:17:03.514Z,0.2
2022-09-04T15:18:12.182Z,0.1
2022-09-04T15:19:21.879Z,0.1
2022-09-04T15:20:30.565Z,0.1
2022-09-04T15:21:40.238Z,0.1
2022-09-04T15:22:49.925Z,0.1
2022-09-04T15:23:59.648Z,0.1
2022-09-04T15:25:09.273Z,0.1
2022-09-04T15:26:16.928Z,0.2
2022-09-04T15:27:26.572Z,0
2022-09-04T15:28:35.233Z,0
2022-09-04T15:29:43.918Z,0.2
2022-09-04T15:30:54.598Z,0.2
2022-09-04T15:32:03.217Z,0.1
2022-09-04T15:33:11.923Z,0.1
2022-09-04T15:34:21.576Z,0
2022-09-04T15:35:33.785Z,0.1
2022-09-04T15:36:41.919Z,0.1
2022-09-04T15:37:51.602Z,0.2
2022-09-04T15:38:59.245Z,0.2
2022-09-04T15:40:09.080Z,0.3
2022-09-04T15:41:18.615Z,0.3
2022-09-04T15:42:26.309Z,0.1
2022-09-04T15:43:35.966Z,0.2
2022-09-04T15:44:44.625Z,0.3
2022-09-04T15:45:54.295Z,0.1
2022-09-04T15:47:03.981Z,0.3
2022-09-04T15:48:12.689Z,0.2
2022-09-04T15:49:22.304Z,0.3
2022-09-04T15:50:31.015Z,0.3
2022-09-04T15:51:38.671Z,0.3
2022-09-04T15:52:47.377Z,0.1